Time;durP1;ratioP1;P1;durP2;ratioP2;P2;SDS_P1;SDS_P2;PMS_P1;PMS_P2;Temp;Humidity;BMP_temperature;BMP_pressure;BME280_temperature;BME280_humidity;BME280_pressure;Samples;Min_cycle;Max_cycle;Signal;HPM_P1;HPM_P2
2020/12/06 00:01:00;;;;;;;15.10;8.85;;;2.20;99.90;;;;;;5058963;28;20102;-66
2020/12/06 00:03:25;;;;;;;15.82;9.20;;;2.20;99.90;;;;;;5067949;28;20044;-66
2020/12/06 00:05:51;;;;;;;14.50;9.68;;;2.20;99.90;;;;;;5060527;28;20028;-66
2020/12/06 00:08:16;;;;;;;15.20;9.77;;;2.20;99.90;;;;;;5070935;28;20505;-66
2020/12/06 00:10:42;;;;;;;14.82;8.90;;;2.20;99.90;;;;;;5071629;28;20550;-66
2020/12/06 00:13:07;;;;;;;16.88;9.57;;;2.10;99.90;;;;;;5056754;28;20048;-67
2020/12/06 00:15:33;;;;;;;16.38;9.75;;;2.10;99.90;;;;;;5070917;28;20028;-67
2020/12/06 00:18:02;;;;;;;20.08;9.35;;;2.00;99.90;;;;;;5069077;28;20055;-65
2020/12/06 00:20:28;;;;;;;17.33;9.65;;;2.00;99.90;;;;;;5059978;28;20035;-66
2020/12/06 00:22:53;;;;;;;15.07;9.52;;;2.00;99.90;;;;;;5053895;28;20025;-67
2020/12/06 00:25:19;;;;;;;15.23;9.25;;;2.00;99.90;;;;;;5067747;28;20024;-66
2020/12/06 00:27:44;;;;;;;16.08;9.30;;;1.90;99.90;;;;;;5056431;28;20057;-67
2020/12/06 00:30:10;;;;;;;14.68;9.25;;;2.00;99.90;;;;;;5056798;28;20032;-66
2020/12/06 00:32:37;;;;;;;18.77;10.55;;;2.00;99.90;;;;;;5071963;28;20031;-65
2020/12/06 00:35:05;;;;;;;16.20;9.25;;;1.90;99.90;;;;;;5071325;28;20121;-66
2020/12/06 00:37:31;;;;;;;17.08;10.20;;;1.90;99.90;;;;;;5058461;28;20017;-64
2020/12/06 00:39:56;;;;;;;14.90;9.38;;;1.90;99.90;;;;;;5081063;28;20025;-65
2020/12/06 00:42:22;;;;;;;16.92;9.80;;;1.90;99.90;;;;;;5053476;28;20029;-66
2020/12/06 00:44:47;;;;;;;16.77;9.65;;;1.90;99.90;;;;;;5063973;28;20031;-66
2020/12/06 00:47:13;;;;;;;20.27;8.75;;;1.90;99.90;;;;;;5067117;28;20017;-66
2020/12/06 00:49:38;;;;;;;16.48;9.88;;;1.90;99.90;;;;;;5071099;28;20020;-65
2020/12/06 00:52:04;;;;;;;13.93;9.63;;;1.90;99.90;;;;;;5066834;28;20025;-66
2020/12/06 00:54:30;;;;;;;14.45;9.35;;;1.90;99.90;;;;;;5073766;28;20496;-67
2020/12/06 00:56:56;;;;;;;20.45;9.80;;;1.90;99.90;;;;;;5067092;28;20033;-64
2020/12/06 00:59:22;;;;;;;15.40;10.35;;;1.90;99.90;;;;;;5071601;28;20025;-66
2020/12/06 01:01:48;;;;;;;15.05;8.98;;;1.80;99.90;;;;;;5070949;28;20024;-66
2020/12/06 01:04:13;;;;;;;15.18;9.38;;;1.90;99.90;;;;;;5071362;28;20021;-65
2020/12/06 01:06:39;;;;;;;16.17;10.10;;;1.90;99.90;;;;;;5071875;28;20041;-65
2020/12/06 01:09:04;;;;;;;18.45;9.77;;;1.90;99.90;;;;;;5065174;28;20453;-65
2020/12/06 01:11:30;;;;;;;17.17;10.18;;;1.80;99.90;;;;;;5071347;28;20418;-65
2020/12/06 01:13:56;;;;;;;15.57;10.43;;;1.80;99.90;;;;;;5063482;28;20032;-66
2020/12/06 01:16:21;;;;;;;17.30;9.82;;;1.80;99.90;;;;;;5069913;28;20081;-66
2020/12/06 01:18:47;;;;;;;18.98;10.73;;;1.80;99.90;;;;;;5067181;28;20028;-65
2020/12/06 01:21:13;;;;;;;18.30;10.50;;;1.80;99.90;;;;;;5070502;28;20020;-65
2020/12/06 01:23:39;;;;;;;15.35;10.40;;;1.90;99.90;;;;;;5063770;28;21060;-66
2020/12/06 01:26:04;;;;;;;17.42;11.10;;;1.90;99.90;;;;;;5065207;28;20040;-66
2020/12/06 01:28:30;;;;;;;20.80;12.38;;;1.90;99.90;;;;;;5064182;28;20107;-65
2020/12/06 01:30:55;;;;;;;18.38;12.00;;;1.90;99.90;;;;;;5061398;28;20190;-65
2020/12/06 01:33:21;;;;;;;19.27;10.90;;;1.80;99.90;;;;;;5066388;28;20110;-65
2020/12/06 01:35:46;;;;;;;22.15;12.00;;;1.90;99.90;;;;;;5069561;28;20485;-65
2020/12/06 01:38:12;;;;;;;19.38;12.35;;;1.90;99.90;;;;;;5053181;28;20032;-65
2020/12/06 01:40:41;;;;;;;19.63;12.60;;;2.00;99.90;;;;;;5060144;28;20033;-65
2020/12/06 01:43:11;;;;;;;22.38;12.50;;;1.90;99.90;;;;;;5064139;28;20028;-66
2020/12/06 01:45:37;;;;;;;20.63;12.80;;;1.90;99.90;;;;;;5071075;28;20086;-66
2020/12/06 01:48:09;;;;;;;20.02;12.10;;;1.90;99.90;;;;;;5071456;28;20428;-65
2020/12/06 01:50:39;;;;;;;23.63;12.60;;;1.90;99.90;;;;;;5070604;28;20377;-65
2020/12/06 01:53:06;;;;;;;25.00;13.60;;;1.90;99.90;;;;;;5057250;28;20123;-66
2020/12/06 01:55:32;;;;;;;22.70;12.80;;;1.80;99.90;;;;;;5066498;28;20029;-65
2020/12/06 01:58:02;;;;;;;23.83;14.13;;;1.90;99.90;;;;;;5054708;28;20139;-65
2020/12/06 02:00:28;;;;;;;24.52;13.73;;;1.80;99.90;;;;;;5069701;28;20020;-65
2020/12/06 02:02:54;;;;;;;24.90;14.60;;;1.80;99.90;;;;;;5059961;28;20391;-65
2020/12/06 02:05:19;;;;;;;23.98;15.55;;;1.70;99.90;;;;;;5055577;28;20585;-65
2020/12/06 02:07:47;;;;;;;22.60;14.05;;;1.70;99.90;;;;;;5062747;28;20559;-65
2020/12/06 02:10:12;;;;;;;24.90;15.75;;;1.70;99.90;;;;;;5049321;28;20032;-65
2020/12/06 02:12:45;;;;;;;25.23;14.75;;;1.70;99.90;;;;;;5068461;28;20314;-68
2020/12/06 02:15:10;;;;;;;30.92;16.83;;;1.70;99.90;;;;;;5070116;28;21359;-66
2020/12/06 02:17:36;;;;;;;27.52;15.85;;;1.70;99.90;;;;;;5061311;28;20055;-66
2020/12/06 02:20:02;;;;;;;30.23;16.52;;;1.70;99.90;;;;;;5065352;28;20049;-65
2020/12/06 02:22:27;;;;;;;28.80;15.80;;;1.70;99.90;;;;;;5053510;28;20030;-65
2020/12/06 02:24:53;;;;;;;30.85;17.95;;;1.70;99.90;;;;;;5062100;28;20028;-64
2020/12/06 02:27:18;;;;;;;30.13;18.10;;;1.70;99.90;;;;;;5069842;28;20432;-64
2020/12/06 02:29:44;;;;;;;32.20;18.05;;;1.60;99.90;;;;;;5067427;28;20042;-66
2020/12/06 02:32:09;;;;;;;32.78;17.77;;;1.60;99.90;;;;;;5064634;28;20428;-65
2020/12/06 02:34:35;;;;;;;30.52;18.13;;;1.60;99.90;;;;;;5069446;28;20120;-65
2020/12/06 02:37:00;;;;;;;33.22;17.67;;;1.60;99.90;;;;;;5056786;28;20032;-65
2020/12/06 02:39:26;;;;;;;30.38;17.65;;;1.60;99.90;;;;;;5070005;28;20024;-66
2020/12/06 02:41:51;;;;;;;31.15;18.40;;;1.60;99.90;;;;;;5070176;28;20016;-65
2020/12/06 02:44:17;;;;;;;30.95;17.15;;;1.60;99.90;;;;;;5058942;28;20025;-65
2020/12/06 02:46:42;;;;;;;32.40;18.63;;;1.60;99.90;;;;;;5071658;28;20024;-65
2020/12/06 02:49:08;;;;;;;28.40;17.45;;;1.60;99.90;;;;;;5069985;28;20348;-66
2020/12/06 02:51:35;;;;;;;33.33;18.25;;;1.60;99.90;;;;;;5075238;28;20025;-64
2020/12/06 02:54:00;;;;;;;31.88;19.25;;;1.60;99.90;;;;;;5074816;28;20527;-65
2020/12/06 02:56:26;;;;;;;30.20;18.98;;;1.60;99.90;;;;;;5061764;28;20040;-65
2020/12/06 02:58:52;;;;;;;29.73;18.33;;;1.60;99.90;;;;;;5078691;28;20330;-64
2020/12/06 03:01:17;;;;;;;33.95;19.85;;;1.50;99.90;;;;;;5064051;28;20059;-66
2020/12/06 03:03:45;;;;;;;35.83;19.05;;;1.50;99.90;;;;;;5076393;28;20168;-65
2020/12/06 03:06:11;;;;;;;34.92;20.52;;;1.50;99.90;;;;;;5079109;28;20473;-66
2020/12/06 03:08:37;;;;;;;34.13;18.67;;;1.50;99.90;;;;;;5065664;28;20028;-65
2020/12/06 03:11:07;;;;;;;33.97;20.77;;;1.50;99.90;;;;;;5066160;28;20081;-65
2020/12/06 03:13:34;;;;;;;33.58;19.70;;;1.40;99.90;;;;;;5074506;28;20079;-65
2020/12/06 03:15:59;;;;;;;40.13;21.90;;;1.50;99.90;;;;;;5073709;28;20024;-65
2020/12/06 03:18:25;;;;;;;39.72;21.20;;;1.50;99.90;;;;;;5069934;28;20496;-66
2020/12/06 03:20:50;;;;;;;36.15;21.98;;;1.50;99.90;;;;;;5073444;28;20052;-66
2020/12/06 03:23:16;;;;;;;31.92;19.58;;;1.60;99.90;;;;;;5071354;28;20374;-65
2020/12/06 03:25:41;;;;;;;35.45;21.40;;;1.70;99.90;;;;;;5062860;28;20032;-66
2020/12/06 03:28:07;;;;;;;38.50;21.20;;;1.80;99.90;;;;;;5060424;28;20067;-65
2020/12/06 03:30:32;;;;;;;34.42;19.48;;;1.80;99.90;;;;;;5095438;28;20214;-66
2020/12/06 03:32:58;;;;;;;38.72;21.33;;;1.70;99.90;;;;;;5083840;28;20032;-66
2020/12/06 03:35:24;;;;;;;36.28;20.95;;;1.70;99.90;;;;;;5081041;28;20052;-66
2020/12/06 03:37:49;;;;;;;39.70;21.30;;;1.70;99.90;;;;;;5085005;28;20556;-66
2020/12/06 03:40:15;;;;;;;39.15;22.00;;;1.80;99.90;;;;;;5090492;28;20040;-66
2020/12/06 03:42:41;;;;;;;33.03;20.20;;;1.80;99.90;;;;;;5087146;28;20089;-65
2020/12/06 03:45:06;;;;;;;45.70;22.27;;;1.70;99.90;;;;;;5086703;28;20048;-66
2020/12/06 03:47:32;;;;;;;38.50;20.58;;;1.80;99.90;;;;;;5074416;28;20025;-66
2020/12/06 03:49:58;;;;;;;33.30;20.08;;;1.80;99.90;;;;;;5070303;28;20025;-65
2020/12/06 03:52:23;;;;;;;37.90;21.02;;;1.80;99.90;;;;;;5056666;28;20040;-67
2020/12/06 03:54:49;;;;;;;37.80;20.73;;;1.80;99.90;;;;;;5054747;28;20048;-65
2020/12/06 03:57:14;;;;;;;41.15;22.05;;;1.80;99.90;;;;;;5060437;28;20030;-66
2020/12/06 03:59:40;;;;;;;39.95;22.50;;;1.80;99.90;;;;;;5073446;28;20060;-65
2020/12/06 04:02:05;;;;;;;48.35;24.58;;;1.80;99.90;;;;;;5055384;28;20029;-65
2020/12/06 04:04:31;;;;;;;38.05;21.30;;;1.80;99.90;;;;;;5061694;28;20067;-66
2020/12/06 04:06:56;;;;;;;38.95;21.33;;;1.90;99.90;;;;;;5054299;28;20083;-65
2020/12/06 04:09:22;;;;;;;37.17;21.48;;;1.90;99.90;;;;;;5061116;28;20450;-65
2020/12/06 04:11:47;;;;;;;41.15;22.23;;;1.80;99.90;;;;;;5072130;28;20043;-65
2020/12/06 04:14:13;;;;;;;42.22;22.63;;;1.90;99.90;;;;;;5054243;28;20032;-65
2020/12/06 04:16:38;;;;;;;35.20;21.00;;;1.90;99.90;;;;;;5059836;28;20450;-65
2020/12/06 04:19:04;;;;;;;39.17;22.90;;;1.90;99.90;;;;;;5070199;28;20457;-65
2020/12/06 04:21:29;;;;;;;42.97;22.25;;;2.00;99.90;;;;;;5066538;28;20024;-66
2020/12/06 04:23:55;;;;;;;34.50;20.35;;;2.10;99.90;;;;;;5073376;28;20035;-66
2020/12/06 04:26:21;;;;;;;36.75;21.35;;;2.10;99.90;;;;;;5071862;28;20039;-65
2020/12/06 04:28:46;;;;;;;42.10;22.02;;;2.10;99.90;;;;;;5064554;28;20028;-66
2020/12/06 04:31:12;;;;;;;43.92;23.38;;;2.10;99.90;;;;;;5072229;28;20028;-66
2020/12/06 04:33:37;;;;;;;39.38;21.40;;;2.10;99.90;;;;;;5073163;28;20028;-66
2020/12/06 04:36:03;;;;;;;42.58;22.40;;;2.10;99.90;;;;;;5073477;28;20033;-65
2020/12/06 04:38:29;;;;;;;42.80;21.77;;;2.00;99.90;;;;;;5068698;28;20063;-65
2020/12/06 04:40:55;;;;;;;36.75;20.73;;;2.00;99.90;;;;;;5064213;28;20064;-66
2020/12/06 04:43:20;;;;;;;40.33;22.35;;;1.90;99.90;;;;;;5069598;28;20055;-65
2020/12/06 04:45:47;;;;;;;39.90;21.52;;;1.80;99.90;;;;;;5054271;28;20025;-65
2020/12/06 04:48:26;;;;;;;41.42;21.67;;;1.70;99.90;;;;;;5070017;28;20115;-66
2020/12/06 04:50:55;;;;;;;35.50;20.67;;;1.60;99.90;;;;;;5064832;28;20036;-65
2020/12/06 04:53:26;;;;;;;36.33;19.77;;;1.70;99.90;;;;;;5064271;28;20454;-65
2020/12/06 04:55:55;;;;;;;33.63;19.17;;;1.80;99.90;;;;;;5070613;28;20120;-66
2020/12/06 04:58:27;;;;;;;37.10;20.70;;;1.80;99.90;;;;;;5066697;28;20025;-65
2020/12/06 05:00:53;;;;;;;32.25;18.95;;;1.80;99.90;;;;;;5071113;28;20104;-66
2020/12/06 05:03:23;;;;;;;37.45;19.98;;;1.90;99.90;;;;;;5068414;28;20104;-65
2020/12/06 05:05:49;;;;;;;32.92;19.20;;;1.80;99.90;;;;;;5060038;28;20016;-65
2020/12/06 05:08:15;;;;;;;32.22;18.27;;;1.90;99.90;;;;;;5078713;22;20576;-62
2020/12/06 05:10:42;;;;;;;38.70;18.60;;;1.80;99.90;;;;;;5066330;28;20041;-61
2020/12/06 05:13:09;;;;;;;31.92;18.23;;;1.80;99.90;;;;;;5066685;28;20040;-62
2020/12/06 05:15:36;;;;;;;26.98;17.13;;;1.80;99.90;;;;;;5063961;28;20475;-62
2020/12/06 05:18:02;;;;;;;36.95;18.58;;;1.80;99.90;;;;;;5068064;28;20103;-62
2020/12/06 05:20:29;;;;;;;34.65;20.17;;;1.80;99.90;;;;;;5065702;28;20059;-62
2020/12/06 05:22:54;;;;;;;36.17;19.77;;;1.80;99.90;;;;;;5072223;28;20029;-63
2020/12/06 05:25:20;;;;;;;36.95;19.88;;;1.70;99.90;;;;;;5072311;28;20367;-61
2020/12/06 05:27:46;;;;;;;37.92;21.35;;;1.50;99.90;;;;;;5070248;28;20525;-61
2020/12/06 05:30:12;;;;;;;38.33;20.40;;;1.40;99.90;;;;;;5060650;28;20017;-62
2020/12/06 05:32:38;;;;;;;38.50;20.65;;;1.40;99.90;;;;;;5072195;28;20461;-60
2020/12/06 05:35:06;;;;;;;35.72;20.02;;;1.40;99.90;;;;;;5071636;28;20032;-61
2020/12/06 05:37:34;;;;;;;39.53;19.98;;;1.30;99.90;;;;;;5069338;28;20111;-61
2020/12/06 05:40:11;;;;;;;35.28;19.80;;;1.30;99.90;;;;;;5071193;28;20040;-61
2020/12/06 05:42:40;;;;;;;37.33;19.52;;;1.40;99.90;;;;;;5070092;28;20502;-62
2020/12/06 05:45:06;;;;;;;35.03;19.08;;;1.30;99.90;;;;;;5075927;28;20150;-62
2020/12/06 05:47:32;;;;;;;35.58;20.23;;;1.40;99.90;;;;;;5059700;28;20542;-61
2020/12/06 05:49:58;;;;;;;36.80;19.67;;;1.40;99.90;;;;;;5056223;28;20073;-61
2020/12/06 05:52:26;;;;;;;39.08;18.45;;;1.40;99.90;;;;;;5067737;28;20032;-61
2020/12/06 05:54:53;;;;;;;32.83;19.27;;;1.40;99.90;;;;;;5066603;28;20037;-60
2020/12/06 05:57:19;;;;;;;32.95;18.83;;;1.40;99.90;;;;;;5068446;28;20052;-61
2020/12/06 05:59:46;;;;;;;36.75;17.90;;;1.50;99.90;;;;;;5071011;28;20126;-61
2020/12/06 06:02:14;;;;;;;30.85;17.75;;;1.50;99.90;;;;;;5067919;28;20115;-61
2020/12/06 06:04:40;;;;;;;35.22;18.33;;;1.60;99.90;;;;;;5070947;28;20025;-61
2020/12/06 06:07:14;;;;;;;31.08;17.63;;;1.60;99.90;;;;;;5066782;28;20064;-61
2020/12/06 06:09:45;;;;;;;28.08;16.73;;;1.60;99.90;;;;;;5070943;28;20047;-61
2020/12/06 06:12:32;;;;;;;31.05;18.20;;;1.70;99.90;;;;;;5065882;28;20032;-61
2020/12/06 06:15:00;;;;;;;31.63;18.40;;;1.60;99.90;;;;;;5070024;28;20089;-61
2020/12/06 06:17:27;;;;;;;29.83;17.40;;;1.60;99.90;;;;;;5068991;28;20032;-61
2020/12/06 06:19:53;;;;;;;31.15;18.25;;;1.60;99.90;;;;;;5070436;28;20040;-61
2020/12/06 06:22:40;;;;;;;38.95;19.35;;;1.70;99.90;;;;;;5063444;28;20017;-62
2020/12/06 06:25:07;;;;;;;33.78;18.58;;;1.70;99.90;;;;;;5061171;28;20043;-61
2020/12/06 06:27:37;;;;;;;28.83;16.45;;;1.70;99.90;;;;;;5060536;28;20067;-62
2020/12/06 06:30:10;;;;;;;27.05;17.58;;;1.70;99.90;;;;;;5073114;28;20085;-62
2020/12/06 06:32:37;;;;;;;29.90;17.95;;;1.80;99.90;;;;;;5069435;28;20259;-61
2020/12/06 06:35:07;;;;;;;30.30;18.00;;;1.80;99.90;;;;;;5062206;28;20033;-60
2020/12/06 06:37:37;;;;;;;35.17;19.08;;;1.80;99.90;;;;;;5059166;28;20028;-61
2020/12/06 06:40:06;;;;;;;35.75;20.75;;;1.70;99.90;;;;;;5058323;28;20036;-60
2020/12/06 06:42:32;;;;;;;31.50;19.98;;;1.70;99.90;;;;;;5068497;28;20020;-61
2020/12/06 06:45:11;;;;;;;36.00;19.83;;;1.70;99.90;;;;;;5066828;28;20035;-61
2020/12/06 06:47:39;;;;;;;38.60;20.83;;;1.60;99.90;;;;;;5071701;28;20017;-61
2020/12/06 06:50:10;;;;;;;34.17;19.98;;;1.70;99.90;;;;;;5068655;28;20025;-61
2020/12/06 06:52:39;;;;;;;36.05;20.77;;;1.70;99.90;;;;;;5061168;28;20040;-62
2020/12/06 06:55:05;;;;;;;33.85;20.85;;;1.70;99.90;;;;;;5070435;28;20106;-61
2020/12/06 06:57:31;;;;;;;39.60;21.60;;;1.60;99.90;;;;;;5070203;28;20490;-61
2020/12/06 06:59:59;;;;;;;38.17;20.80;;;1.60;99.90;;;;;;5068737;28;20040;-61
2020/12/06 07:02:41;;;;;;;36.72;21.65;;;1.60;99.90;;;;;;5068509;28;20025;-61
2020/12/06 07:05:27;;;;;;;35.45;21.02;;;1.60;99.90;;;;;;5067380;28;20486;-61
2020/12/06 07:07:54;;;;;;;39.20;21.75;;;1.60;99.90;;;;;;5063392;28;20048;-61
2020/12/06 07:10:24;;;;;;;36.03;20.85;;;1.60;99.90;;;;;;5064243;28;20028;-61
2020/12/06 07:12:56;;;;;;;38.17;22.23;;;1.60;99.90;;;;;;5065044;28;20025;-59
2020/12/06 07:15:23;;;;;;;;;;;1.60;99.90;;;;;;5064087;28;20040;-61
2020/12/06 07:17:50;;;;;;;41.65;22.38;;;1.60;99.90;;;;;;5058983;28;19912;-61
2020/12/06 07:20:17;;;;;;;42.42;22.85;;;1.60;99.90;;;;;;5064209;28;20024;-61
2020/12/06 07:22:44;;;;;;;44.47;23.52;;;1.60;99.90;;;;;;5068288;28;20025;-61
2020/12/06 07:25:11;;;;;;;44.30;24.48;;;1.60;99.90;;;;;;5065689;28;20016;-64
2020/12/06 07:27:37;;;;;;;38.88;23.50;;;1.50;99.90;;;;;;5064208;28;20033;-61
2020/12/06 07:30:08;;;;;;;41.55;22.55;;;1.50;99.90;;;;;;5065116;28;20109;-62
2020/12/06 07:32:34;;;;;;;40.97;23.10;;;1.50;99.90;;;;;;5068536;28;20029;-62
2020/12/06 07:35:00;;;;;;;41.70;21.83;;;1.50;99.90;;;;;;5085348;28;20103;-61
2020/12/06 07:37:26;;;;;;;40.30;21.60;;;1.60;99.90;;;;;;5079008;28;20024;-61
2020/12/06 07:39:52;;;;;;;39.58;22.08;;;1.60;99.90;;;;;;5063509;28;20039;-61
2020/12/06 07:42:23;;;;;;;41.47;22.38;;;1.60;99.90;;;;;;5066137;28;20021;-63
2020/12/06 07:44:50;;;;;;;36.78;21.23;;;1.60;99.90;;;;;;5062935;28;20043;-62
2020/12/06 07:47:17;;;;;;;34.97;20.75;;;1.80;99.90;;;;;;5070114;28;20036;-62
2020/12/06 07:49:48;;;;;;;39.55;22.33;;;1.80;99.90;;;;;;5064701;28;20036;-63
2020/12/06 07:52:15;;;;;;;37.17;20.92;;;1.80;99.90;;;;;;5069978;28;20032;-62
2020/12/06 07:54:40;;;;;;;40.28;21.10;;;1.80;99.90;;;;;;5067178;28;20111;-61
2020/12/06 07:57:09;;;;;;;41.10;21.23;;;1.80;99.90;;;;;;5069017;28;20111;-61
2020/12/06 07:59:36;;;;;;;37.22;19.92;;;1.70;99.90;;;;;;5069386;28;20032;-61
2020/12/06 08:02:02;;;;;;;40.65;21.65;;;1.70;99.90;;;;;;5064204;28;20036;-62
2020/12/06 08:04:35;;;;;;;38.28;21.27;;;1.80;99.90;;;;;;5079958;28;20482;-62
2020/12/06 08:07:09;;;;;;;36.90;21.58;;;1.80;99.90;;;;;;5068776;28;20040;-61
2020/12/06 08:09:38;;;;;;;38.70;22.10;;;1.70;99.90;;;;;;5058107;28;20541;-62
2020/12/06 08:12:05;;;;;;;39.83;21.55;;;1.60;99.90;;;;;;5072625;28;20456;-61
2020/12/06 08:14:31;;;;;;;37.20;22.60;;;1.60;99.90;;;;;;5070883;28;20013;-61
2020/12/06 08:17:02;;;;;;;41.53;21.23;;;1.60;99.90;;;;;;5080359;28;20071;-62
2020/12/06 08:19:29;;;;;;;34.25;21.25;;;1.60;99.90;;;;;;5057006;28;20035;-62
2020/12/06 08:21:59;;;;;;;39.00;21.83;;;1.60;99.90;;;;;;5061639;28;20058;-61
2020/12/06 08:24:25;;;;;;;38.47;21.50;;;1.60;99.90;;;;;;5077689;28;20042;-61
2020/12/06 08:26:52;;;;;;;35.45;21.25;;;1.60;99.90;;;;;;5070973;28;20028;-63
2020/12/06 08:29:18;;;;;;;39.70;20.92;;;1.70;99.90;;;;;;5062293;28;20486;-61
2020/12/06 08:31:45;;;;;;;37.38;21.50;;;1.70;99.90;;;;;;5063929;28;20508;-62
2020/12/06 08:34:16;;;;;;;39.85;20.88;;;1.80;99.90;;;;;;5054250;28;20683;-62
2020/12/06 08:36:42;;;;;;;34.90;21.25;;;1.80;99.90;;;;;;5056951;28;20123;-61
2020/12/06 08:39:22;;;;;;;35.47;18.90;;;1.80;99.90;;;;;;5061679;28;20032;-64
2020/12/06 08:41:48;;;;;;;36.78;20.38;;;1.90;99.90;;;;;;5064257;28;20055;-61
2020/12/06 08:44:15;;;;;;;37.92;19.55;;;1.90;99.90;;;;;;5072015;28;20504;-63
2020/12/06 08:46:51;;;;;;;33.17;19.48;;;1.90;99.90;;;;;;5064181;28;20092;-62
2020/12/06 08:49:24;;;;;;;35.03;19.48;;;2.00;99.90;;;;;;5077545;28;20036;-62
2020/12/06 08:51:51;;;;;;;32.15;18.05;;;2.00;99.90;;;;;;5085032;28;20033;-61
2020/12/06 08:54:36;;;;;;;39.97;20.08;;;2.10;99.90;;;;;;5089878;28;20052;-62
2020/12/06 08:57:09;;;;;;;25.95;16.85;;;2.20;99.90;;;;;;5081956;28;20013;-62
2020/12/06 08:59:36;;;;;;;34.85;19.23;;;2.20;99.90;;;;;;5071736;28;20051;-62
2020/12/06 09:02:02;;;;;;;28.48;17.52;;;2.20;99.90;;;;;;5061190;28;20075;-61
2020/12/06 09:04:28;;;;;;;32.20;18.30;;;2.20;99.90;;;;;;5054134;28;20025;-61
2020/12/06 09:06:55;;;;;;;31.55;19.08;;;2.20;99.90;;;;;;5056772;28;20037;-62
2020/12/06 09:09:21;;;;;;;30.95;17.85;;;2.20;99.90;;;;;;5071730;28;20032;-62
2020/12/06 09:11:50;;;;;;;33.42;17.67;;;2.30;99.90;;;;;;5050522;28;20085;-62
2020/12/06 09:14:15;;;;;;;35.50;18.85;;;2.30;99.90;;;;;;5066378;28;20021;-62
2020/12/06 09:16:41;;;;;;;49.13;23.13;;;2.20;99.90;;;;;;5057078;28;20033;-62
2020/12/06 09:19:06;;;;;;;31.60;18.77;;;2.20;99.90;;;;;;5064121;28;20497;-63
2020/12/06 09:21:32;;;;;;;30.98;18.42;;;2.30;99.90;;;;;;5066930;28;20036;-62
2020/12/06 09:23:58;;;;;;;33.08;19.52;;;2.40;99.90;;;;;;5066103;28;20049;-61
2020/12/06 09:26:23;;;;;;;33.28;18.48;;;2.40;99.90;;;;;;5061079;28;20040;-62
2020/12/06 09:28:49;;;;;;;33.83;19.60;;;2.40;99.90;;;;;;5059806;28;20321;-62
2020/12/06 09:31:14;;;;;;;31.40;18.33;;;2.30;99.90;;;;;;5067881;28;20367;-63
2020/12/06 09:33:40;;;;;;;30.90;19.20;;;2.20;99.90;;;;;;5069587;28;20098;-63
2020/12/06 09:36:05;;;;;;;30.42;18.50;;;2.20;99.90;;;;;;5058612;28;20036;-62
2020/12/06 09:38:31;;;;;;;37.58;19.58;;;2.10;99.90;;;;;;5070977;28;20054;-61
2020/12/06 09:40:57;;;;;;;36.05;19.92;;;2.10;99.90;;;;;;5068540;28;20076;-60
2020/12/06 09:43:23;;;;;;;37.78;21.17;;;2.10;99.90;;;;;;5063565;28;20033;-60
2020/12/06 09:45:49;;;;;;;35.85;20.77;;;2.10;99.90;;;;;;5067791;28;20029;-61
2020/12/06 09:48:15;;;;;;;40.30;22.30;;;2.10;99.90;;;;;;5064583;28;20032;-61
2020/12/06 09:50:40;;;;;;;36.28;21.58;;;2.10;99.90;;;;;;5062040;28;20025;-61
2020/12/06 09:53:06;;;;;;;35.63;20.63;;;2.00;99.90;;;;;;5068026;28;20032;-61
2020/12/06 09:55:32;;;;;;;41.65;21.70;;;2.00;99.90;;;;;;5061523;28;20055;-59
2020/12/06 09:57:57;;;;;;;38.75;20.70;;;2.10;99.90;;;;;;5078556;28;20051;-60
2020/12/06 10:00:23;;;;;;;35.05;20.85;;;2.10;99.90;;;;;;5052158;28;20087;-60
2020/12/06 10:02:48;;;;;;;35.67;21.02;;;2.10;99.90;;;;;;5056168;28;20028;-61
2020/12/06 10:05:14;;;;;;;35.45;21.00;;;2.20;99.90;;;;;;5058726;28;20410;-62
2020/12/06 10:07:39;;;;;;;34.80;18.65;;;2.20;99.90;;;;;;5054074;28;20478;-62
2020/12/06 10:10:06;;;;;;;38.13;19.95;;;2.20;99.90;;;;;;5065389;28;20024;-59
2020/12/06 10:12:32;;;;;;;32.50;18.73;;;2.30;99.90;;;;;;5055420;28;20027;-59
2020/12/06 10:14:58;;;;;;;33.42;20.58;;;2.30;99.90;;;;;;5050703;28;20021;-59
2020/12/06 10:17:24;;;;;;;31.98;19.77;;;2.30;99.90;;;;;;5052250;28;20025;-59
2020/12/06 10:19:50;;;;;;;35.38;20.85;;;2.30;99.90;;;;;;5053365;28;20048;-59
2020/12/06 10:22:15;;;;;;;35.05;20.30;;;2.30;99.90;;;;;;5052080;28;20479;-62
2020/12/06 10:24:41;;;;;;;34.63;20.00;;;2.30;99.90;;;;;;5067141;28;20514;-61
2020/12/06 10:27:06;;;;;;;36.55;21.58;;;2.30;99.90;;;;;;5060595;28;20033;-60
2020/12/06 10:29:32;;;;;;;38.53;21.80;;;2.30;99.90;;;;;;5061668;28;20041;-61
2020/12/06 10:32:00;;;;;;;39.38;22.08;;;2.30;99.90;;;;;;5054840;28;20040;-60
2020/12/06 10:34:26;;;;;;;36.50;21.65;;;2.20;99.90;;;;;;5053358;28;20052;-59
2020/12/06 10:36:57;;;;;;;38.47;21.52;;;2.30;99.90;;;;;;5055788;28;20393;-60
2020/12/06 10:39:23;;;;;;;35.45;19.98;;;2.40;99.90;;;;;;5063486;28;20040;-60
2020/12/06 10:41:50;;;;;;;36.28;21.38;;;2.50;99.90;;;;;;5062145;28;20051;-61
2020/12/06 10:44:16;;;;;;;35.00;19.02;;;2.50;99.90;;;;;;5065776;28;20095;-59
2020/12/06 10:46:42;;;;;;;39.63;21.42;;;2.50;99.90;;;;;;5063340;28;20043;-60
2020/12/06 10:49:07;;;;;;;39.35;21.48;;;2.50;99.90;;;;;;5065866;28;20024;-62
2020/12/06 10:51:33;;;;;;;38.03;22.52;;;2.50;99.90;;;;;;5063565;28;20032;-59
2020/12/06 10:53:59;;;;;;;36.38;22.10;;;2.50;99.90;;;;;;5074375;28;20375;-59
2020/12/06 10:56:26;;;;;;;38.38;21.38;;;2.50;99.90;;;;;;5075801;28;20397;-60
2020/12/06 10:58:52;;;;;;;35.60;21.80;;;2.50;99.90;;;;;;5077213;28;20048;-59
2020/12/06 11:01:18;;;;;;;43.10;25.55;;;2.50;99.90;;;;;;5054633;28;20043;-60
2020/12/06 11:03:43;;;;;;;42.88;23.27;;;2.50;99.90;;;;;;5054650;28;20089;-61
2020/12/06 11:06:09;;;;;;;43.90;25.45;;;2.60;99.90;;;;;;5052145;28;20033;-61
2020/12/06 11:08:34;;;;;;;41.00;23.23;;;2.60;99.90;;;;;;5057685;23;20060;-63
2020/12/06 11:11:00;;;;;;;38.70;24.23;;;2.60;99.90;;;;;;5036752;28;20105;-64
2020/12/06 11:13:25;;;;;;;36.97;20.95;;;2.60;99.90;;;;;;5041229;28;20021;-64
2020/12/06 11:15:51;;;;;;;33.35;19.80;;;2.70;99.90;;;;;;5036088;28;20103;-65
2020/12/06 11:18:16;;;;;;;35.33;20.60;;;2.80;99.90;;;;;;5047108;28;20032;-63
2020/12/06 11:20:42;;;;;;;34.53;20.15;;;2.90;99.90;;;;;;5043701;28;20083;-65
2020/12/06 11:23:07;;;;;;;35.35;21.45;;;2.90;99.90;;;;;;5036041;28;20032;-64
2020/12/06 11:25:33;;;;;;;35.03;20.30;;;2.90;99.90;;;;;;5042745;28;20036;-65
2020/12/06 11:27:58;;;;;;;37.40;19.65;;;3.00;99.90;;;;;;5045668;28;20022;-66
2020/12/06 11:30:24;;;;;;;41.33;21.00;;;3.00;99.90;;;;;;5051754;28;20024;-65
2020/12/06 11:32:49;;;;;;;34.17;21.38;;;3.00;99.90;;;;;;5051460;28;20112;-66
2020/12/06 11:35:15;;;;;;;35.25;21.55;;;3.00;99.90;;;;;;5054577;28;20079;-65
2020/12/06 11:37:40;;;;;;;40.30;22.02;;;3.10;99.90;;;;;;5049395;28;20061;-63
2020/12/06 11:40:06;;;;;;;34.92;21.50;;;3.00;99.90;;;;;;5052656;28;20040;-64
2020/12/06 11:42:31;;;;;;;37.40;20.77;;;3.00;99.90;;;;;;5054961;28;20032;-66
2020/12/06 11:44:57;;;;;;;36.53;20.75;;;3.00;99.90;;;;;;5049744;28;20099;-65
2020/12/06 11:47:23;;;;;;;36.88;21.58;;;3.00;99.90;;;;;;5056216;28;20021;-65
2020/12/06 11:49:49;;;;;;;38.38;21.80;;;3.00;99.90;;;;;;5055694;28;20097;-65
2020/12/06 11:52:15;;;;;;;45.83;22.77;;;2.90;99.90;;;;;;5044747;28;20079;-66
2020/12/06 11:54:40;;;;;;;54.88;22.50;;;2.90;99.90;;;;;;5055618;28;20049;-65
2020/12/06 11:57:06;;;;;;;42.58;22.42;;;3.00;99.90;;;;;;5057056;28;20055;-66
2020/12/06 11:59:33;;;;;;;42.75;21.42;;;3.00;99.90;;;;;;5051953;28;20037;-65
2020/12/06 12:01:59;;;;;;;38.75;21.05;;;3.10;99.90;;;;;;5059938;28;20029;-64
2020/12/06 12:04:24;;;;;;;47.20;25.77;;;3.20;99.90;;;;;;5037381;28;20029;-64
2020/12/06 12:06:50;;;;;;;75.38;29.83;;;3.20;99.90;;;;;;5047971;28;20055;-64
2020/12/06 12:09:15;;;;;;;41.22;21.95;;;3.20;99.90;;;;;;5050000;28;20483;-64
2020/12/06 12:11:41;;;;;;;41.38;24.95;;;3.10;99.90;;;;;;5048871;28;20031;-64
2020/12/06 12:14:07;;;;;;;38.40;22.58;;;3.00;99.90;;;;;;5051911;28;20028;-65
2020/12/06 12:16:32;;;;;;;46.17;26.13;;;2.90;99.90;;;;;;5053296;28;20029;-63
2020/12/06 12:19:05;;;;;;;46.47;25.33;;;2.90;99.90;;;;;;5045964;28;20076;-64
2020/12/06 12:21:33;;;;;;;53.03;29.08;;;2.90;99.90;;;;;;5048466;28;20021;-65
2020/12/06 12:23:59;;;;;;;60.92;29.77;;;3.00;99.90;;;;;;5047758;28;20033;-64
2020/12/06 12:26:25;;;;;;;52.40;27.55;;;3.10;99.90;;;;;;5049365;28;20092;-67
2020/12/06 12:28:51;;;;;;;40.20;23.75;;;3.00;99.90;;;;;;5049341;28;20020;-64
2020/12/06 12:31:17;;;;;;;44.42;24.50;;;3.10;99.90;;;;;;5052640;28;20037;-65
2020/12/06 12:33:42;;;;;;;43.70;23.30;;;3.10;99.90;;;;;;5052708;28;20060;-64
2020/12/06 12:36:08;;;;;;;48.67;23.65;;;3.00;99.90;;;;;;5052794;28;20482;-64